Aviation Digital Data Service (ADDS)

Output produced by METARs form (1335 UTC 17 September 2019)
found at http://www.aviationweather.gov/metar/data/
 
VTSG 171300Z 13003KT 100V160 9999 FEW018 SCT020 BKN100 25/24 Q1011 NOSIG
VTSG 171200Z 24006KT 210V290 9999 SCT012 OVC100 26/24 Q1010 NOSIG
VTSG 171100Z 06003KT 030V090 9999 FEW018 SCT020 BKN100 27/25 Q1009 TEMPO FM1115 TL1200 3000 +RA
VTSG 171000Z VRB02KT 9999 SCT020 BKN100 29/24 Q1008 TEMPO FM1145 TL1215 3000 +RA
VTSG 170900Z 23008KT 200V260 9999 -RA SCT018 SCT020 BKN100 26/23 Q1009 BECMG TL0915 9999 NSW
VTSG 170800Z 20006KT 170V230 9999 FEW018 SCT020 BKN100 29/25 Q1009 TEMPO FM0815 TL0840 3000 +RA
VTSG 170700Z 31008KT 9999 FEW018 SCT020 BKN100 28/25 Q1009 NOSIG
VTSG 170600Z 26005KT 9999 4000SE RA SCT018 BKN020 BKN100 31/24 Q1010 TEMPO TL0610 5000 RA
VTSG 170500Z 22004KT 140V280 9999 FEW018 SCT020 BKN100 32/24 Q1011 NOSIG
VTSG 170400Z 25006KT 220V280 9999 SCT020 SCT100 31/25 Q1011 NOSIG
VTSG 170300Z VRB02KT 9999 SCT020 31/26 Q1012 NOSIG
VTSG 170200Z 11005KT 070V140 9999 FEW020 BKN100 27/27 Q1011 NOSIG
VTSG 170100Z 12004KT 080V140 9999 FEW020 BKN100 25/25 Q1011 NOSIG
VTSG 170000Z 09003KT 060V130 9999 FEW020 BKN100 24/24 Q1009 NOSIG
VTSG 162300Z 07002KT 7000 FEW020 BKN100 23/23 Q1009 NOSIG
VTSG 162200Z 00000KT 8000 FEW020 BKN100 24/24 Q1008 NOSIG
VTSG 162100Z VRB02KT 7000 SCT020 BKN100 23/23 Q1008 NOSIG
VTSG 162000Z VRB01KT 7000 FEW020 BKN100 23/23 Q1009 NOSIG
VTSG 161900Z 00000KT 8000 FEW020 BKN100 24/24 Q1009 NOSIG
VTSG 161800Z 12002KT 8000 FEW020 BKN100 24/24 Q1010 NOSIG
VTSG 161700Z 00000KT 8000 FEW020 BKN100 24/24 Q1010 NOSIG
VTSG 161600Z 00000KT 8000 FEW020 BKN100 24/24 Q1010 NOSIG
VTSG 161500Z 13002KT 9999 FEW020 BKN100 24/24 Q1010 NOSIG
VTSG 161400Z 33003KT 290V020 9999 FEW020 BKN100 24/24 Q1010 NOSIG
TAF VTSG 171100Z 1712/1812 28008KT 9999 FEW020 SCT100 
     BECMG 1712/1714 00000KT 
     BECMG 1802/1804 26006KT 
     TEMPO 1806/1812 26015G35KT 5000 RA FEW018 SCT020 BKN100